Terminal Aerodrome Forecast
Issued by NWS Pittsburgh, PA

Current Version | Previous Version | Graphics & Text | Print | Product List | Glossary On
Versions: 1 2 3 4 5 6 7 8 9 10 11 12 13 14 15 16 17 18 19 20 21 22 23 24 25 26 27 28 29 30 31 32 33
000
FTUS41 KPBZ 021700
TAFPIT
TAF
KPIT 021727Z 0218/0324 30014KT P6SM BKN035
      TEMPO 0218/0220 6SM -SN BKN025
     FM022300 31005KT P6SM BKN250
     FM030800 VRB03KT P6SM OVC120
     FM031600 13006KT 6SM -FZRASN OVC015
     FM032100 16007KT 2SM -RA BR OVC008=

USA.gov is the U.S. government's official web portal to all federal, state and local government web resources and services.